createdAt,value
2022-11-05T00:00:33.855Z,97281.06
2022-11-05T00:04:02.498Z,97288.02
2022-11-05T00:07:47.892Z,97291.21
2022-11-05T00:10:50.963Z,97289.96
2022-11-05T00:14:12.285Z,97297.04
2022-11-05T00:17:15.181Z,97307.32
2022-11-05T00:20:18.126Z,97310.09
2022-11-05T00:23:39.716Z,97313.48
2022-11-05T00:26:42.576Z,97318.20
2022-11-05T00:29:45.476Z,97318.61
2022-11-05T00:32:50.264Z,97323.79
2022-11-05T00:35:53.332Z,97331.52
2022-11-05T00:38:56.254Z,97335.95
2022-11-05T00:42:17.585Z,97333.68
2022-11-05T00:45:20.907Z,97341.58
2022-11-05T00:48:42.719Z,97342.09
2022-11-05T00:51:45.642Z,97342.69
2022-11-05T00:54:48.680Z,97341.49
2022-11-05T00:57:51.794Z,97333.39
2022-11-05T01:00:57.369Z,97332.14
2022-11-05T01:04:00.268Z,97333.06
2022-11-05T01:07:03.194Z,97330.46
2022-11-05T01:10:06.698Z,97326.49
2022-11-05T01:13:13.133Z,97327.31
2022-11-05T01:16:16.476Z,97335.55
2022-11-05T01:19:19.374Z,97332.87
2022-11-05T01:22:22.247Z,97331.26
2022-11-05T01:25:25.777Z,97331.14
2022-11-05T01:28:28.722Z,97335.79
2022-11-05T01:31:31.686Z,97337.90
2022-11-05T01:34:34.685Z,97338.64
2022-11-05T01:37:37.587Z,97347.41
2022-11-05T01:40:42.886Z,97338.38
2022-11-05T01:43:49.819Z,97337.02
2022-11-05T01:46:52.779Z,97340.08
2022-11-05T01:49:59.351Z,97345.52
2022-11-05T01:53:43.177Z,97348.28
2022-11-05T01:56:51.348Z,97354.97
2022-11-05T01:59:58.634Z,97359.30
2022-11-05T02:03:01.824Z,97351.96
2022-11-05T02:06:09.374Z,97357.45
2022-11-05T02:09:22.391Z,97361.59
2022-11-05T02:12:25.597Z,97362.08
2022-11-05T02:16:00.733Z,97376.48
2022-11-05T02:19:25.726Z,97391.50
2022-11-05T02:23:10.885Z,97394.42
2022-11-05T02:27:01.500Z,97410.93
2022-11-05T02:30:40.986Z,97416.03
2022-11-05T02:34:06.379Z,97420.13
2022-11-05T02:37:16.111Z,97417.08
2022-11-05T02:40:46.590Z,97424.48
2022-11-05T02:44:07.198Z,97436.89
2022-11-05T02:47:36.115Z,97441.50
2022-11-05T02:51:04.716Z,97448.48
2022-11-05T02:54:13.361Z,97440.80
2022-11-05T02:57:20.764Z,97437.66
2022-11-05T03:00:50.712Z,97435.06
2022-11-05T03:03:56.693Z,97445.27
2022-11-05T03:07:39.281Z,97457.35
2022-11-05T03:10:56.711Z,97461.41
2022-11-05T03:14:22.146Z,97454.35
2022-11-05T03:17:43.128Z,97459.69
2022-11-05T03:21:02.641Z,97469.58
2022-11-05T03:24:16.134Z,97475.08
2022-11-05T03:27:26.485Z,97482.08
2022-11-05T03:30:31.658Z,97484.73
2022-11-05T03:33:37.448Z,97483.64
2022-11-05T03:36:45.837Z,97494.73
2022-11-05T03:39:53.391Z,97497.81
2022-11-05T03:42:57.941Z,97492.63
2022-11-05T03:46:06.223Z,97486.90
2022-11-05T03:49:16.206Z,97502.80
2022-11-05T03:52:24.348Z,97511.30
2022-11-05T03:55:35.416Z,97513.33
2022-11-05T03:58:43.591Z,97505.25
2022-11-05T04:01:48.101Z,97507.44
2022-11-05T04:04:52.068Z,97517.91
2022-11-05T04:08:14.634Z,97523.88
2022-11-05T04:11:36.060Z,97522.73
2022-11-05T04:14:39.660Z,97525.98
2022-11-05T04:17:42.537Z,97532.04
2022-11-05T04:21:04.059Z,97537.06
2022-11-05T04:24:09.958Z,97534.15
2022-11-05T04:27:12.958Z,97531.71
2022-11-05T04:30:21.662Z,97535.95
2022-11-05T04:33:24.789Z,97534.62
2022-11-05T04:36:27.921Z,97539.17
2022-11-05T04:39:30.863Z,97539.81
2022-11-05T04:42:33.804Z,97542.42
2022-11-05T04:45:36.979Z,97548.95
2022-11-05T04:48:39.992Z,97549.02
2022-11-05T04:51:43.132Z,97549.45
2022-11-05T04:54:46.124Z,97557.40
2022-11-05T04:57:53.380Z,97560.23
2022-11-05T05:00:56.353Z,97559.39
2022-11-05T05:03:59.337Z,97562.39
2022-11-05T05:07:02.258Z,97563.36
2022-11-05T05:10:07.202Z,97568.34
2022-11-05T05:13:12.081Z,97571.83
2022-11-05T05:16:25.419Z,97572.62
2022-11-05T05:19:28.921Z,97580.46
2022-11-05T05:22:31.837Z,97578.29
2022-11-05T05:25:34.779Z,97586.85
2022-11-05T05:28:37.676Z,97593.29
2022-11-05T05:31:40.831Z,97593.86
2022-11-05T05:34:43.729Z,97596.23
2022-11-05T05:37:46.767Z,97602.52
2022-11-05T05:40:50.971Z,97609.84
2022-11-05T05:43:54.118Z,97615.05
2022-11-05T05:46:57.097Z,97619.77
2022-11-05T05:50:00.085Z,97619.95
2022-11-05T05:53:03.048Z,97617.84
2022-11-05T05:56:06.730Z,97623.67
2022-11-05T05:59:09.887Z,97625.17
2022-11-05T06:02:13.495Z,97627.52
2022-11-05T06:05:16.576Z,97625.80
2022-11-05T06:08:19.560Z,97628.02
2022-11-05T06:11:24.541Z,97646.95
2022-11-05T06:14:27.491Z,97647.42
2022-11-05T06:17:30.457Z,97646.16
2022-11-05T06:20:33.385Z,97648.52
2022-11-05T06:23:37.875Z,97656.77
2022-11-05T06:26:43.236Z,97660.23
2022-11-05T06:29:46.204Z,97662.27
2022-11-05T06:32:49.246Z,97670.20
2022-11-05T06:35:52.765Z,97683.94
2022-11-05T06:38:55.635Z,97694.94
2022-11-05T06:42:26.880Z,97710.09
2022-11-05T06:45:21.682Z,97717.95
2022-11-05T06:48:25.511Z,97721.08
2022-11-05T06:51:28.651Z,97725.33
2022-11-05T06:54:31.627Z,97730.90
2022-11-05T06:57:37.982Z,97737.89
2022-11-05T07:00:41.279Z,97741.83
2022-11-05T07:03:45.214Z,97744.57
2022-11-05T07:06:48.134Z,97745.51
2022-11-05T07:09:52.640Z,97744.57
2022-11-05T07:12:55.619Z,97745.42
2022-11-05T07:15:58.767Z,97748.02
2022-11-05T07:19:01.837Z,97753.91
2022-11-05T07:22:04.725Z,97765.36
2022-11-05T07:25:08.186Z,97773.06
2022-11-05T07:28:11.645Z,97772.83
2022-11-05T07:31:14.719Z,97775.95
2022-11-05T07:34:17.698Z,97776.20
2022-11-05T07:37:20.726Z,97779.64
2022-11-05T07:40:25.635Z,97786.40
2022-11-05T07:43:28.622Z,97792.67
2022-11-05T07:46:31.699Z,97799.96
2022-11-05T07:49:34.618Z,97799.57
2022-11-05T07:52:37.551Z,97804.30
2022-11-05T07:55:41.302Z,97807.84
2022-11-05T07:58:44.253Z,97815.21
2022-11-05T08:01:47.318Z,97809.08
2022-11-05T08:04:51.431Z,97807.20
2022-11-05T08:07:56.302Z,97806.64
2022-11-05T08:11:04.274Z,97807.73
2022-11-05T08:14:07.203Z,97808.23
2022-11-05T08:17:10.833Z,97802.02
2022-11-05T08:20:15.564Z,97802.09
2022-11-05T08:23:18.636Z,97801.06
2022-11-05T08:26:21.559Z,97804.29
2022-11-05T08:29:25.156Z,97801.67
2022-11-05T08:32:28.133Z,97811.81
2022-11-05T08:35:31.453Z,97818.25
2022-11-05T08:38:34.463Z,97826.27
2022-11-05T08:41:37.435Z,97829.64
2022-11-05T08:44:40.446Z,97839.60
2022-11-05T08:47:43.439Z,97843.04
2022-11-05T08:50:48.309Z,97844.54
2022-11-05T08:53:51.299Z,97846.27
2022-11-05T08:56:54.244Z,97843.92
2022-11-05T08:59:57.210Z,97844.06
2022-11-05T09:03:01.936Z,97846.27
2022-11-05T09:06:05.037Z,97852.16
2022-11-05T09:09:07.995Z,97855.06
2022-11-05T09:12:12.768Z,97853.02
2022-11-05T09:15:16.224Z,97845.15
2022-11-05T09:18:22.513Z,97845.39
2022-11-05T09:21:25.514Z,97853.64
2022-11-05T09:24:28.533Z,97850.73
2022-11-05T09:27:31.913Z,97855.91
2022-11-05T09:30:34.891Z,97859.11
2022-11-05T09:33:39.914Z,97867.98
2022-11-05T09:36:43.069Z,97871.61
2022-11-05T09:39:50.398Z,97879.70
2022-11-05T09:42:55.060Z,97878.67
2022-11-05T09:46:02.868Z,97875.45
2022-11-05T09:49:11.694Z,97877.56
2022-11-05T09:52:21.602Z,97881.10
2022-11-05T09:55:38.050Z,97884.88
2022-11-05T09:58:46.068Z,97885.49
2022-11-05T10:01:50.254Z,97879.14
2022-11-05T10:04:57.532Z,97884.63
2022-11-05T10:08:10.664Z,97885.66
2022-11-05T10:11:18.827Z,97886.91
2022-11-05T10:14:27.541Z,97893.42
2022-11-05T10:17:37.888Z,97897.13
2022-11-05T10:20:43.108Z,97898.60
2022-11-05T10:23:47.744Z,97900.02
2022-11-05T10:26:53.139Z,97902.61
2022-11-05T10:29:56.675Z,97905.29
2022-11-05T10:33:04.577Z,97904.34
2022-11-05T10:36:13.179Z,97910.38
2022-11-05T10:39:19.299Z,97917.15
2022-11-05T10:42:54.534Z,97918.64
2022-11-05T10:46:18.809Z,97924.43
2022-11-05T10:49:40.270Z,97929.45
2022-11-05T10:52:52.269Z,97930.73
2022-11-05T10:55:58.746Z,97935.74
2022-11-05T10:59:06.748Z,97929.85
2022-11-05T11:02:22.997Z,97925.45
2022-11-05T11:05:32.565Z,97924.73
2022-11-05T11:08:36.761Z,97926.70
2022-11-05T11:11:43.183Z,97929.14
2022-11-05T11:15:05.188Z,97929.69
2022-11-05T11:18:42.661Z,97937.30
2022-11-05T11:21:45.604Z,97946.48
2022-11-05T11:24:54.057Z,97951.13
2022-11-05T11:28:04.171Z,97955.45
2022-11-05T11:31:11.203Z,97950.11
2022-11-05T11:34:29.401Z,97949.71
2022-11-05T11:37:42.136Z,97946.48
2022-11-05T11:40:45.772Z,97953.71
2022-11-05T11:43:48.868Z,97956.61
2022-11-05T11:46:56.233Z,97962.74
2022-11-05T11:50:01.593Z,97969.50
2022-11-05T11:53:17.408Z,97970.36
2022-11-05T11:56:21.856Z,97970.52
2022-11-05T11:59:53.972Z,97964.17
2022-11-05T12:03:01.557Z,97971.94
2022-11-05T12:06:13.250Z,97970.31
2022-11-05T12:09:27.942Z,97968.27
2022-11-05T12:12:46.157Z,97973.92
2022-11-05T12:15:54.138Z,97977.63
2022-11-05T12:19:26.595Z,97985.16
2022-11-05T12:22:37.274Z,97989.73
2022-11-05T12:26:06.150Z,97996.11
2022-11-05T12:29:46.682Z,97999.95
2022-11-05T12:33:01.618Z,98007.02
2022-11-05T12:36:25.223Z,98006.33
2022-11-05T12:39:44.551Z,98009.88
2022-11-05T12:43:19.685Z,98014.04
2022-11-05T12:46:48.520Z,98017.96
2022-11-05T12:50:07.228Z,98020.02
2022-11-05T12:53:40.345Z,98026.37
2022-11-05T12:56:47.977Z,98025.98
2022-11-05T12:59:56.831Z,98020.97
2022-11-05T13:03:30.193Z,98020.98
2022-11-05T13:06:40.331Z,98033.92
2022-11-05T13:09:50.939Z,98038.09
2022-11-05T13:13:02.715Z,98036.69
2022-11-05T13:16:48.477Z,98037.56
2022-11-05T13:20:17.535Z,98044.23
2022-11-05T13:23:29.002Z,98058.83
2022-11-05T13:26:59.337Z,98065.91
2022-11-05T13:30:16.255Z,98070.77
2022-11-05T13:33:23.493Z,98077.77
2022-11-05T13:37:14.322Z,98078.39
2022-11-05T13:40:25.636Z,98077.99
2022-11-05T13:44:02.350Z,98079.66
2022-11-05T13:47:42.895Z,98078.33
2022-11-05T13:50:56.688Z,98083.59
2022-11-05T13:54:25.880Z,98085.55
2022-11-05T13:57:32.845Z,98094.48
2022-11-05T14:00:56.160Z,98089.08
2022-11-05T14:03:59.233Z,98089.40
2022-11-05T14:07:08.748Z,98089.48
2022-11-05T14:10:39.203Z,98090.03
2022-11-05T14:13:45.370Z,98092.06
2022-11-05T14:16:52.778Z,98095.21
2022-11-05T14:20:04.658Z,98105.98
2022-11-05T14:23:38.386Z,98117.91
2022-11-05T14:26:41.296Z,98124.98
2022-11-05T14:29:48.039Z,98130.23
2022-11-05T14:32:53.141Z,98138.95
2022-11-05T14:36:21.115Z,98146.41
2022-11-05T14:39:27.839Z,98146.48
2022-11-05T14:42:31.400Z,98150.73
2022-11-05T14:45:52.400Z,98158.83
2022-11-05T14:49:08.106Z,98161.65
2022-11-05T14:52:16.858Z,98170.83
2022-11-05T14:55:34.831Z,98172.09
2022-11-05T14:58:43.262Z,98176.10
2022-11-05T15:01:46.219Z,98174.30
2022-11-05T15:04:50.902Z,98179.62
2022-11-05T15:07:58.034Z,98183.88
2022-11-05T15:11:23.347Z,98187.89
2022-11-05T15:14:37.985Z,98182.30
2022-11-05T15:17:49.124Z,98184.73
2022-11-05T15:20:56.582Z,98189.46
2022-11-05T15:24:02.041Z,98192.67
2022-11-05T15:27:18.240Z,98196.91
2022-11-05T15:30:23.061Z,98198.25
2022-11-05T15:33:26.577Z,98201.79
2022-11-05T15:36:31.460Z,98206.89
2022-11-05T15:39:41.320Z,98212.38
2022-11-05T15:42:44.290Z,98217.25
2022-11-05T15:46:03.832Z,98216.69
2022-11-05T15:49:07.177Z,98221.41
2022-11-05T15:52:12.926Z,98220.08
2022-11-05T15:55:20.442Z,98228.09
2022-11-05T15:58:23.435Z,98233.27
2022-11-05T16:01:35.447Z,98235.00
2022-11-05T16:04:38.713Z,98239.48
2022-11-05T16:07:44.032Z,98239.55
2022-11-05T16:10:51.075Z,98241.91
2022-11-05T16:14:12.446Z,98244.89
2022-11-05T16:17:20.663Z,98251.73
2022-11-05T16:20:32.646Z,98253.85
2022-11-05T16:23:57.099Z,98257.14
2022-11-05T16:27:03.895Z,98260.50
2022-11-05T16:30:18.279Z,98261.15
2022-11-05T16:33:21.941Z,98266.25
2022-11-05T16:36:28.662Z,98262.95
2022-11-05T16:39:31.615Z,98264.59
2022-11-05T16:42:34.593Z,98267.11
2022-11-05T16:45:41.367Z,98272.60
2022-11-05T16:48:44.629Z,98279.52
2022-11-05T16:51:47.515Z,98284.85
2022-11-05T16:54:50.611Z,98291.76
2022-11-05T16:57:55.266Z,98299.21
2022-11-05T17:01:04.912Z,98305.89
2022-11-05T17:04:11.619Z,98306.99
2022-11-05T17:07:14.747Z,98309.11
2022-11-05T17:10:18.529Z,98306.84
2022-11-05T17:13:21.554Z,98313.42
2022-11-05T17:16:24.520Z,98314.28
2022-11-05T17:19:27.623Z,98308.02
2022-11-05T17:22:30.582Z,98309.66
2022-11-05T17:25:33.684Z,98308.95
2022-11-05T17:28:37.879Z,98307.70
2022-11-05T17:31:41.471Z,98306.84
2022-11-05T17:34:44.382Z,98313.11
2022-11-05T17:37:47.465Z,98309.19
2022-11-05T17:40:50.778Z,98308.86
2022-11-05T17:43:56.249Z,98308.33
2022-11-05T17:46:59.233Z,98304.70
2022-11-05T17:50:02.428Z,98303.14
2022-11-05T17:53:05.852Z,98309.57
2022-11-05T17:56:10.288Z,98314.36
2022-11-05T17:59:13.289Z,98321.51
2022-11-05T18:02:17.949Z,98323.23
2022-11-05T18:05:22.308Z,98326.92
2022-11-05T18:08:26.775Z,98328.80
2022-11-05T18:11:29.987Z,98333.52
2022-11-05T18:14:33.093Z,98341.29
2022-11-05T18:17:36.184Z,98338.94
2022-11-05T18:20:39.381Z,98332.89
2022-11-05T18:23:42.837Z,98332.10
2022-11-05T18:26:46.437Z,98336.25
2022-11-05T18:29:49.516Z,98343.02
2022-11-05T18:32:52.749Z,98341.52
2022-11-05T18:35:56.255Z,98346.23
2022-11-05T18:39:03.881Z,98353.83
2022-11-05T18:42:06.907Z,98359.64
2022-11-05T18:45:10.563Z,98364.11
2022-11-05T18:48:13.767Z,98368.20
2022-11-05T18:51:17.032Z,98365.53
2022-11-05T18:54:20.613Z,98368.04
2022-11-05T18:57:23.813Z,98365.77
2022-11-05T19:00:27.964Z,98362.55
2022-11-05T19:03:31.209Z,98370.72
2022-11-05T19:06:35.418Z,98376.91
2022-11-05T19:09:39.491Z,98378.70
2022-11-05T19:12:42.573Z,98378.63
2022-11-05T19:15:45.461Z,98384.60
2022-11-05T19:18:49.025Z,98384.44
2022-11-05T19:21:52.282Z,98391.17
2022-11-05T19:24:55.402Z,98398.96
2022-11-05T19:27:58.703Z,98403.97
2022-11-05T19:31:02.427Z,98403.90
2022-11-05T19:34:05.693Z,98414.49
2022-11-05T19:37:09.151Z,98419.66
2022-11-05T19:40:12.390Z,98421.23
2022-11-05T19:43:15.861Z,98429.70
2022-11-05T19:46:20.004Z,98427.50
2022-11-05T19:49:23.062Z,98432.91
2022-11-05T19:52:25.993Z,98444.30
2022-11-05T19:55:29.104Z,98446.02
2022-11-05T19:58:32.234Z,98449.15
2022-11-05T20:01:35.572Z,98449.37
2022-11-05T20:04:38.908Z,98449.60
2022-11-05T20:07:43.617Z,98451.56
2022-11-05T20:10:54.242Z,98449.52
2022-11-05T20:13:57.622Z,98453.98
2022-11-05T20:17:00.723Z,98457.91
2022-11-05T20:20:04.231Z,98462.77
2022-11-05T20:23:07.774Z,98464.73
2022-11-05T20:26:12.092Z,98471.48
2022-11-05T20:29:15.092Z,98472.73
2022-11-05T20:32:18.069Z,98473.91
2022-11-05T20:35:21.945Z,98474.84
2022-11-05T20:38:24.831Z,98479.70
2022-11-05T20:41:27.806Z,98485.02
2022-11-05T20:44:30.786Z,98483.75
2022-11-05T20:47:34.062Z,98485.50
2022-11-05T20:50:46.259Z,98487.13
2022-11-05T20:53:49.434Z,98488.45
2022-11-05T20:56:52.463Z,98490.72
2022-11-05T20:59:55.480Z,98494.71
2022-11-05T21:02:58.521Z,98504.67
2022-11-05T21:06:04.574Z,98498.46
2022-11-05T21:09:07.614Z,98500.34
2022-11-05T21:12:10.519Z,98499.71
2022-11-05T21:15:13.449Z,98500.73
2022-11-05T21:18:18.359Z,98496.71
2022-11-05T21:21:21.437Z,98498.68
2022-11-05T21:24:24.418Z,98500.71
2022-11-05T21:27:27.417Z,98501.96
2022-11-05T21:30:30.454Z,98506.44
2022-11-05T21:33:33.887Z,98509.16
2022-11-05T21:36:36.807Z,98505.78
2022-11-05T21:39:39.767Z,98507.59
2022-11-05T21:42:42.778Z,98512.84
2022-11-05T21:45:45.895Z,98506.88
2022-11-05T21:48:48.886Z,98509.77
2022-11-05T21:52:10.764Z,98504.66
2022-11-05T21:55:22.805Z,98500.71
2022-11-05T21:58:44.400Z,98498.25
2022-11-05T22:01:47.465Z,98499.59
2022-11-05T22:04:54.748Z,98497.04
2022-11-05T22:07:57.753Z,98492.86
2022-11-05T22:11:03.694Z,98498.59
2022-11-05T22:14:06.732Z,98500.30
2022-11-05T22:17:10.856Z,98502.32
2022-11-05T22:20:14.131Z,98500.98
2022-11-05T22:23:17.178Z,98503.77
2022-11-05T22:26:20.150Z,98503.52
2022-11-05T22:29:23.182Z,98510.70
2022-11-05T22:32:26.128Z,98511.16
2022-11-05T22:35:29.228Z,98507.23
2022-11-05T22:38:32.277Z,98509.64
2022-11-05T22:41:35.339Z,98511.05
2022-11-05T22:44:38.494Z,98507.72
2022-11-05T22:47:42.040Z,98506.06
2022-11-05T22:50:45.187Z,98510.21
2022-11-05T22:53:49.016Z,98511.60
2022-11-05T22:56:53.155Z,98510.48
2022-11-05T22:59:56.183Z,98515.31
2022-11-05T23:02:59.444Z,98522.66
2022-11-05T23:06:03.895Z,98526.88
2022-11-05T23:09:32.502Z,98531.17
2022-11-05T23:12:39.846Z,98526.44
2022-11-05T23:16:01.972Z,98526.58
2022-11-05T23:19:28.410Z,98526.45
2022-11-05T23:22:50.944Z,98530.66
2022-11-05T23:25:58.618Z,98531.96
2022-11-05T23:29:01.762Z,98534.29
2022-11-05T23:32:23.743Z,98534.95
2022-11-05T23:35:45.373Z,98535.01
2022-11-05T23:38:48.324Z,98533.77
2022-11-05T23:42:09.562Z,98531.46
2022-11-05T23:45:31.427Z,98535.34
2022-11-05T23:48:36.541Z,98540.77
2022-11-05T23:51:39.497Z,98546.00
2022-11-05T23:54:42.439Z,98548.55
2022-11-05T23:57:45.357Z,98550.89
